Time,TemperatureF,DewpointF,PressureIn,WindDirection,WindDirectionDegrees,WindSpeedMPH,WindSpeedGustMPH,Humidity,HourlyPrecipIn,Conditions,Clouds,dailyrainin,SoftwareType,DateUTC
2013-05-21 03:02:00,53.0,45.0,-100.00,NE,50,9.0,12.0,74,-99.99,,,-99.99,,2013-05-21 10:02:00,
2013-05-21 03:12:00,53.0,45.0,-100.00,NE,50,9.0,12.0,74,-99.99,,,-99.99,,2013-05-21 10:12:00,
2013-05-21 05:01:00,53.0,43.0,-100.00,ENE,70,15.0,20.0,68,-99.99,,,-99.99,,2013-05-21 12:01:00,
2013-05-21 05:11:00,53.0,43.0,-100.00,ENE,70,15.0,20.0,68,-99.99,,,-99.99,,2013-05-21 12:11:00,
2013-05-21 06:10:00,54.0,42.0,-100.00,ENE,70,18.0,22.0,63,-99.99,,,-99.99,,2013-05-21 13:10:00,
2013-05-21 07:01:00,54.0,42.0,-100.00,ENE,70,18.0,22.0,63,-99.99,,,-99.99,,2013-05-21 14:01:00,
2013-05-21 08:01:00,59.0,43.0,-100.00,ENE,70,17.0,25.0,55,-99.99,,,-99.99,,2013-05-21 15:01:00,
2013-05-21 08:11:00,59.0,43.0,-100.00,ENE,70,17.0,25.0,55,-99.99,,,-99.99,,2013-05-21 15:11:00,
2013-05-21 10:02:00,68.0,45.0,-100.00,ENE,75,12.0,15.0,43,-99.99,,,-99.99,,2013-05-21 17:02:00,
2013-05-21 10:12:00,68.0,45.0,-100.00,ENE,75,12.0,15.0,43,-99.99,,,-99.99,,2013-05-21 17:12:00,
2013-05-21 11:10:00,69.0,44.0,-100.00,South,185,13.0,17.0,40,-99.99,,,-99.99,,2013-05-21 18:10:00,
2013-05-21 12:01:00,69.0,44.0,-100.00,South,185,13.0,17.0,40,-99.99,,,-99.99,,2013-05-21 19:01:00,
2013-05-21 13:03:00,63.0,44.0,-100.00,SW,215,14.0,21.0,49,-99.99,,,-99.99,,2013-05-21 20:03:00,
2013-05-21 15:10:00,52.0,44.0,-100.00,SW,220,24.0,35.0,74,-99.99,,,-99.99,,2013-05-21 22:10:00,
2013-05-21 16:02:00,52.0,44.0,-100.00,SW,220,24.0,35.0,74,-99.99,,,-99.99,,2013-05-21 23:02:00,
2013-05-21 17:10:00,47.0,41.0,-100.00,SSW,205,12.0,15.0,79,-99.99,,,-99.99,,2013-05-22 00:10:00,
2013-05-21 18:01:00,47.0,41.0,-100.00,SSW,205,12.0,15.0,79,-99.99,,,-99.99,,2013-05-22 01:01:00,
2013-05-21 18:10:00,44.0,41.0,-100.00,West,260,2.0,12.0,89,-99.99,,,-99.99,,2013-05-22 01:10:00,
2013-05-21 19:01:00,44.0,41.0,-100.00,West,260,2.0,12.0,89,-99.99,,,-99.99,,2013-05-22 02:01:00,
2013-05-21 19:10:00,44.0,42.0,-100.00,NE,40,7.0,10.0,92,-99.99,,,-99.99,,2013-05-22 02:10:00,
2013-05-21 20:01:00,44.0,42.0,-100.00,NE,40,7.0,10.0,92,-99.99,,,-99.99,,2013-05-22 03:01:00,
2013-05-21 20:10:00,44.0,42.0,-100.00,NE,55,3.0,6.0,92,-99.99,,,-99.99,,2013-05-22 03:10:00,
2013-05-21 21:03:00,44.0,42.0,-100.00,NE,55,3.0,6.0,92,-99.99,,,-99.99,,2013-05-22 04:03:00,
2013-05-21 22:02:00,43.0,40.0,-100.00,ENE,65,8.0,12.0,89,-99.99,,,-99.99,,2013-05-22 05:02:00,
2013-05-21 22:10:00,42.0,40.0,-100.00,ENE,70,6.0,8.0,92,-99.99,,,-99.99,,2013-05-22 05:10:00,
2013-05-21 22:11:00,43.0,40.0,-100.00,ENE,65,8.0,12.0,89,-99.99,,,-99.99,,2013-05-22 05:11:00,
2013-05-21 23:01:00,42.0,40.0,-100.00,ENE,70,6.0,8.0,92,-99.99,,,-99.99,,2013-05-22 06:01:00,